Time;durP1;ratioP1;P1;durP2;ratioP2;P2;SDS_P1;SDS_P2;PMS_P1;PMS_P2;Temp;Humidity;BMP_temperature;BMP_pressure;BME280_temperature;BME280_humidity;BME280_pressure;Samples;Min_cycle;Max_cycle;Signal;HPM_P1;HPM_P2
2022/07/18 10:21:11;;;;;;;0.80;0.65;;;33.70;63.20;;;;;;4254287;23;20233;-68
2022/07/18 10:23:41;;;;;;;1.10;0.68;;;33.30;63.70;;;;;;4935786;29;20208;-68
2022/07/18 10:26:12;;;;;;;1.38;0.80;;;33.00;62.30;;;;;;4936896;29;20236;-68
2022/07/18 10:29:12;;;;;;;1.35;0.80;;;32.80;60.70;;;;;;4936363;29;20241;-69
2022/07/18 10:31:42;;;;;;;1.05;0.70;;;32.80;63.50;;;;;;4936848;29;20209;-69
2022/07/18 10:34:13;;;;;;;1.05;0.70;;;32.80;64.40;;;;;;4936961;29;20626;-69
2022/07/18 10:37:02;;;;;;;1.73;0.80;;;32.80;64.80;;;;;;4936414;29;20208;-69
2022/07/18 10:39:34;;;;;;;1.30;0.80;;;32.60;63.20;;;;;;4935715;29;20212;-68
2022/07/18 10:42:24;;;;;;;1.77;0.80;;;32.70;62.00;;;;;;4936541;29;20219;-68
2022/07/18 10:44:52;;;;;;;0.85;0.68;;;32.80;64.80;;;;;;4932866;29;20236;-68
2022/07/18 10:47:21;;;;;;;1.15;0.73;;;32.80;65.00;;;;;;4936434;29;20283;-68
2022/07/18 10:50:05;;;;;;;3.05;0.95;;;32.80;63.50;;;;;;4931684;29;20215;-68
2022/07/18 10:52:58;;;;;;;1.10;0.70;;;32.80;63.50;;;;;;4934908;29;20727;-69
2022/07/18 10:55:32;;;;;;;1.33;0.70;;;32.60;61.60;;;;;;4935010;29;20209;-69
2022/07/18 10:58:20;;;;;;;1.38;0.85;;;32.20;62.80;;;;;;4933230;29;20767;-68
2022/07/18 11:00:50;;;;;;;1.17;0.70;;;32.20;62.80;;;;;;4932726;29;20219;-69
2022/07/18 11:03:26;;;;;;;4.25;0.93;;;32.20;63.90;;;;;;4934199;29;20212;-69
2022/07/18 11:05:54;;;;;;;2.13;0.75;;;32.40;63.60;;;;;;4934399;29;20210;-69
2022/07/18 11:08:25;;;;;;;1.67;0.90;;;32.50;65.20;;;;;;4933590;29;20244;-70
2022/07/18 11:11:09;;;;;;;0.75;0.65;;;32.50;62.40;;;;;;4935021;29;20212;-70
2022/07/18 11:13:39;;;;;;;1.15;0.60;;;32.50;63.50;;;;;;4934424;29;20212;-71
2022/07/18 11:16:09;;;;;;;1.30;0.80;;;32.40;61.70;;;;;;4934599;29;20208;-71
2022/07/18 11:19:10;;;;;;;1.27;0.70;;;32.30;60.60;;;;;;4934326;29;20236;-70
2022/07/18 11:21:36;;;;;;;1.95;0.50;;;32.30;62.70;;;;;;4934298;29;20553;-70
2022/07/18 11:24:07;;;;;;;0.80;0.50;;;32.20;62.00;;;;;;4935013;29;20220;-69
2022/07/18 11:26:35;;;;;;;0.88;0.70;;;32.30;58.70;;;;;;4934370;29;20216;-69
2022/07/18 11:29:04;;;;;;;1.25;0.70;;;32.30;60.10;;;;;;4934369;29;20243;-70
2022/07/18 11:31:32;;;;;;;0.60;0.60;;;32.30;59.10;;;;;;4934842;29;20675;-69
2022/07/18 11:34:01;;;;;;;1.02;0.68;;;32.40;60.70;;;;;;4934308;29;20231;-69
2022/07/18 11:36:31;;;;;;;3.30;0.80;;;32.50;59.00;;;;;;4934450;29;20212;-70
2022/07/18 11:39:02;;;;;;;1.55;0.75;;;32.50;59.30;;;;;;4934339;29;20233;-71
2022/07/18 11:41:30;;;;;;;1.63;0.73;;;32.60;63.70;;;;;;4930930;29;20211;-70
2022/07/18 11:43:58;;;;;;;0.70;0.70;;;32.60;59.30;;;;;;4934255;29;20296;-71
2022/07/18 11:46:26;;;;;;;1.63;0.77;;;32.70;60.10;;;;;;4931892;29;20215;-70
2022/07/18 11:48:59;;;;;;;1.95;0.60;;;32.80;61.70;;;;;;4933791;29;20251;-72
2022/07/18 11:51:34;;;;;;;1.27;0.70;;;32.80;60.20;;;;;;4934588;29;20209;-69
2022/07/18 11:54:00;;;;;;;1.67;0.70;;;32.80;59.30;;;;;;4934413;29;20210;-71
2022/07/18 11:56:27;;;;;;;1.00;0.75;;;32.90;58.80;;;;;;4933961;29;20213;-71
2022/07/18 11:58:57;;;;;;;0.77;0.55;;;32.90;59.30;;;;;;4934093;29;20237;-71
2022/07/18 12:01:31;;;;;;;1.42;0.70;;;32.90;60.90;;;;;;4934371;29;20209;-69
2022/07/18 12:03:59;;;;;;;1.45;0.70;;;32.90;58.90;;;;;;4929051;29;20264;-71
2022/07/18 12:06:27;;;;;;;1.40;0.88;;;32.90;58.80;;;;;;4933248;29;20690;-72
2022/07/18 12:08:56;;;;;;;2.70;0.70;;;32.80;59.50;;;;;;4933948;29;20620;-68
2022/07/18 12:11:28;;;;;;;0.88;0.70;;;32.80;59.60;;;;;;4932705;29;20217;-67
2022/07/18 12:13:58;;;;;;;0.98;0.60;;;32.80;57.90;;;;;;4934823;29;20204;-67
2022/07/18 12:16:31;;;;;;;1.25;0.77;;;32.80;57.60;;;;;;4935064;29;20208;-68
2022/07/18 12:19:00;;;;;;;0.75;0.60;;;32.70;59.60;;;;;;4935848;29;20778;-71
2022/07/18 12:21:40;;;;;;;1.77;0.85;;;32.80;59.20;;;;;;4938699;29;20217;-67
2022/07/18 12:24:23;;;;;;;0.88;0.60;;;32.70;57.70;;;;;;4938916;29;20216;-68
2022/07/18 12:27:08;;;;;;;0.93;0.70;;;32.60;60.40;;;;;;4938838;29;20217;-67
2022/07/18 12:29:58;;;;;;;0.70;0.50;;;32.60;60.10;;;;;;4938522;29;20664;-70
2022/07/18 12:32:26;;;;;;;1.73;0.70;;;32.60;56.40;;;;;;4938316;29;20271;-69
2022/07/18 12:34:57;;;;;;;0.90;0.60;;;32.70;57.90;;;;;;4938626;29;20215;-68
2022/07/18 12:37:25;;;;;;;1.35;0.73;;;32.80;59.20;;;;;;4938532;29;20287;-69
2022/07/18 12:39:57;;;;;;;1.15;0.80;;;32.80;61.60;;;;;;4938765;29;20260;-70
2022/07/18 12:42:30;;;;;;;2.13;0.90;;;32.90;61.80;;;;;;4938010;29;20201;-70
2022/07/18 12:44:59;;;;;;;1.02;0.70;;;33.10;57.90;;;;;;4933175;29;20209;-70
2022/07/18 12:47:26;;;;;;;0.75;0.70;;;33.00;56.50;;;;;;4936607;29;20233;-68
2022/07/18 12:49:53;;;;;;;1.35;0.80;;;33.10;57.60;;;;;;4937004;29;20205;-68
2022/07/18 12:52:20;;;;;;;0.82;0.65;;;33.00;55.50;;;;;;4935829;29;20219;-68
2022/07/18 12:54:48;;;;;;;1.48;0.85;;;32.90;56.60;;;;;;4936797;29;20209;-69
2022/07/18 12:57:15;;;;;;;1.38;0.70;;;32.80;57.70;;;;;;4935173;29;20224;-71
2022/07/18 12:59:42;;;;;;;0.80;0.70;;;32.80;60.70;;;;;;4921734;29;20220;-69
2022/07/18 13:02:10;;;;;;;1.10;0.70;;;32.90;59.10;;;;;;4936177;29;20675;-75
2022/07/18 13:04:37;;;;;;;2.63;0.90;;;33.00;58.00;;;;;;4924149;29;20687;-72
2022/07/18 13:07:04;;;;;;;0.98;0.70;;;33.00;56.70;;;;;;4937106;29;20214;-70
2022/07/18 13:09:31;;;;;;;1.27;0.75;;;33.10;60.10;;;;;;4937222;29;20236;-73
2022/07/18 13:11:59;;;;;;;1.20;0.80;;;33.10;58.40;;;;;;4937149;29;20660;-69
2022/07/18 13:14:27;;;;;;;2.80;0.60;;;32.90;57.30;;;;;;4936928;29;20572;-71
2022/07/18 13:16:55;;;;;;;2.70;0.93;;;32.90;58.20;;;;;;4937371;29;20209;-72
2022/07/18 13:19:23;;;;;;;1.08;0.85;;;32.90;62.00;;;;;;4936627;29;20239;-72
2022/07/18 13:21:50;;;;;;;0.70;0.70;;;32.80;56.50;;;;;;4936805;29;20229;-71
2022/07/18 13:24:17;;;;;;;1.60;0.85;;;32.80;58.90;;;;;;4937147;29;20219;-72
2022/07/18 13:26:44;;;;;;;1.27;1.00;;;32.90;56.80;;;;;;4936833;29;20229;-70
2022/07/18 13:29:11;;;;;;;0.90;0.70;;;32.90;58.80;;;;;;4937138;29;20595;-73
2022/07/18 13:31:38;;;;;;;1.42;0.70;;;32.90;58.30;;;;;;4936307;29;20213;-71
2022/07/18 13:34:05;;;;;;;0.80;0.70;;;33.00;58.50;;;;;;4936923;29;20219;-72
2022/07/18 13:36:34;;;;;;;1.15;0.90;;;33.00;58.00;;;;;;4937223;29;20211;-72
2022/07/18 13:39:02;;;;;;;1.27;0.80;;;32.90;58.40;;;;;;4936396;29;20228;-70
2022/07/18 13:41:29;;;;;;;1.08;0.70;;;32.90;59.90;;;;;;4935129;29;20219;-73
2022/07/18 13:43:56;;;;;;;1.58;0.80;;;32.90;57.40;;;;;;4935048;29;20235;-71
2022/07/18 13:46:23;;;;;;;1.02;0.80;;;32.90;57.70;;;;;;4934888;29;20209;-72
2022/07/18 13:48:50;;;;;;;1.10;0.70;;;32.90;57.90;;;;;;4934239;29;20335;-70
2022/07/18 13:51:17;;;;;;;2.13;0.80;;;32.90;57.30;;;;;;4934762;29;20248;-70
2022/07/18 13:53:46;;;;;;;1.02;0.65;;;32.80;55.00;;;;;;4934896;29;20213;-70
2022/07/18 13:56:13;;;;;;;2.58;0.75;;;32.80;55.60;;;;;;4934864;29;20213;-70
2022/07/18 13:58:40;;;;;;;0.63;0.63;;;32.80;57.10;;;;;;4936283;29;20316;-70
2022/07/18 14:01:07;;;;;;;1.25;0.90;;;32.90;58.50;;;;;;4936569;29;20209;-70
2022/07/18 14:03:34;;;;;;;2.05;0.80;;;32.90;54.60;;;;;;4936376;29;20217;-71
2022/07/18 14:06:01;;;;;;;0.98;0.77;;;32.90;58.80;;;;;;4936297;29;20738;-70
2022/07/18 14:08:27;;;;;;;1.88;0.60;;;33.00;59.70;;;;;;4936088;29;20312;-70
2022/07/18 14:10:56;;;;;;;1.02;0.70;;;33.00;61.30;;;;;;4936468;29;20212;-70
2022/07/18 14:13:23;;;;;;;1.88;0.80;;;33.00;56.70;;;;;;4936233;29;20212;-70
2022/07/18 14:15:50;;;;;;;0.95;0.70;;;33.00;55.40;;;;;;4936610;29;20209;-70
2022/07/18 14:18:16;;;;;;;0.90;0.80;;;33.10;56.60;;;;;;4936387;29;20595;-70
2022/07/18 14:20:44;;;;;;;2.13;0.90;;;33.20;59.60;;;;;;4936649;29;20238;-70
2022/07/18 14:23:10;;;;;;;0.98;0.70;;;33.10;55.70;;;;;;4935926;29;20220;-71
2022/07/18 14:25:37;;;;;;;2.72;0.77;;;33.10;56.40;;;;;;4936352;29;20213;-71
2022/07/18 14:28:06;;;;;;;1.25;0.80;;;33.10;56.60;;;;;;4936380;29;20237;-70
2022/07/18 14:30:33;;;;;;;1.65;0.80;;;33.10;58.10;;;;;;4936522;29;20233;-70
2022/07/18 14:33:00;;;;;;;1.17;0.68;;;33.00;56.80;;;;;;4936298;29;20480;-74
2022/07/18 14:35:27;;;;;;;1.05;0.80;;;33.00;57.20;;;;;;4936311;29;20225;-73
2022/07/18 14:37:54;;;;;;;1.35;0.88;;;33.10;55.00;;;;;;4936398;29;20231;-75
2022/07/18 14:40:21;;;;;;;1.17;0.85;;;33.10;57.20;;;;;;4935953;29;20209;-73
2022/07/18 14:42:48;;;;;;;0.75;0.60;;;33.00;57.30;;;;;;4935386;29;20292;-73
2022/07/18 14:45:16;;;;;;;1.90;0.70;;;33.00;56.60;;;;;;4935883;29;20209;-74
2022/07/18 14:47:43;;;;;;;0.88;0.75;;;33.10;56.90;;;;;;4935737;29;20319;-71
2022/07/18 14:50:10;;;;;;;1.13;0.80;;;33.00;57.60;;;;;;4935427;29;20205;-72
2022/07/18 14:52:38;;;;;;;1.25;0.80;;;33.10;58.90;;;;;;4935236;29;20659;-72
2022/07/18 14:55:06;;;;;;;2.38;1.08;;;33.10;56.70;;;;;;4935386;29;20241;-71
2022/07/18 14:57:33;;;;;;;2.17;0.77;;;33.10;60.80;;;;;;4935712;29;20225;-71
2022/07/18 15:00:00;;;;;;;1.58;0.63;;;33.10;54.80;;;;;;4936081;29;20212;-71
2022/07/18 15:02:28;;;;;;;1.67;0.70;;;33.10;54.20;;;;;;4935927;29;20204;-71
2022/07/18 15:04:55;;;;;;;0.90;0.70;;;33.10;53.80;;;;;;4935535;29;20218;-68
2022/07/18 15:07:22;;;;;;;2.25;0.75;;;33.10;54.00;;;;;;4936000;29;20229;-70
2022/07/18 15:09:48;;;;;;;1.38;0.70;;;33.10;56.60;;;;;;4935562;29;20240;-71
2022/07/18 15:12:16;;;;;;;0.90;0.60;;;33.10;56.00;;;;;;4935838;29;20236;-69
2022/07/18 15:14:43;;;;;;;1.67;0.60;;;33.10;61.10;;;;;;4936018;29;20287;-71
2022/07/18 15:17:09;;;;;;;2.00;0.70;;;33.00;58.00;;;;;;4935734;29;20209;-69
2022/07/18 15:19:38;;;;;;;1.63;0.70;;;33.00;61.50;;;;;;4935782;29;20308;-71
2022/07/18 15:22:05;;;;;;;2.08;0.70;;;32.90;56.30;;;;;;4935412;29;20224;-70
2022/07/18 15:24:32;;;;;;;1.58;0.73;;;32.90;56.20;;;;;;4935988;29;20213;-70
2022/07/18 15:26:59;;;;;;;1.70;0.80;;;32.90;61.80;;;;;;4935998;29;20208;-70
2022/07/18 15:29:26;;;;;;;1.15;0.80;;;32.90;56.20;;;;;;4935612;29;20240;-70
2022/07/18 15:31:53;;;;;;;1.63;0.70;;;32.80;57.70;;;;;;4935656;29;20216;-69
2022/07/18 15:34:20;;;;;;;1.58;0.80;;;32.80;59.10;;;;;;4935269;29;20212;-71
2022/07/18 15:36:48;;;;;;;1.23;0.80;;;32.80;59.00;;;;;;4935413;29;20686;-71
2022/07/18 15:39:15;;;;;;;1.10;0.70;;;32.80;61.20;;;;;;4935557;29;20264;-70
2022/07/18 15:41:42;;;;;;;1.52;0.70;;;32.70;56.80;;;;;;4935663;29;20217;-70
2022/07/18 15:44:10;;;;;;;1.08;0.75;;;32.70;59.70;;;;;;4935521;29;20212;-70
2022/07/18 15:46:37;;;;;;;1.15;0.70;;;32.70;58.80;;;;;;4935379;29;20645;-71
2022/07/18 15:49:04;;;;;;;3.40;0.90;;;32.70;57.30;;;;;;4935670;29;20591;-72
2022/07/18 15:51:31;;;;;;;2.20;1.70;;;32.80;58.70;;;;;;4935362;29;20209;-71
2022/07/18 15:53:59;;;;;;;0.75;0.70;;;32.80;58.30;;;;;;4935919;29;20221;-73
2022/07/18 15:56:26;;;;;;;1.40;0.77;;;32.80;55.80;;;;;;4939264;29;20212;-74
2022/07/18 15:58:53;;;;;;;0.98;0.70;;;32.90;57.40;;;;;;4939320;29;20292;-73
2022/07/18 16:01:20;;;;;;;1.13;0.82;;;32.80;55.40;;;;;;4939563;29;20220;-71
2022/07/18 16:03:47;;;;;;;1.05;0.77;;;32.80;60.00;;;;;;4939269;29;20209;-73
2022/07/18 16:06:14;;;;;;;1.80;0.88;;;32.80;59.90;;;;;;4939283;29;20211;-72
2022/07/18 16:08:41;;;;;;;0.90;0.80;;;32.70;60.40;;;;;;4938470;29;20236;-72
2022/07/18 16:11:11;;;;;;;1.33;0.73;;;32.60;62.70;;;;;;4938590;29;20211;-74
2022/07/18 16:13:37;;;;;;;1.15;0.70;;;32.60;61.20;;;;;;4938163;29;20239;-71
2022/07/18 16:16:05;;;;;;;1.15;0.68;;;32.50;57.80;;;;;;4939376;29;20209;-71
2022/07/18 16:18:32;;;;;;;1.70;1.00;;;32.50;61.50;;;;;;4939402;29;20235;-72
2022/07/18 16:20:59;;;;;;;2.15;0.70;;;32.50;61.50;;;;;;4938706;29;20223;-72
2022/07/18 16:23:25;;;;;;;1.10;0.70;;;32.50;64.40;;;;;;4938750;29;20660;-73
2022/07/18 16:25:52;;;;;;;1.02;0.80;;;32.40;62.50;;;;;;4938895;29;20209;-73
2022/07/18 16:28:21;;;;;;;1.23;0.80;;;32.30;59.70;;;;;;4938951;29;20315;-73
2022/07/18 16:30:49;;;;;;;0.77;0.70;;;32.30;58.50;;;;;;4939019;29;20296;-70
2022/07/18 16:33:16;;;;;;;1.80;0.80;;;32.40;57.50;;;;;;4938610;29;20212;-67
2022/07/18 16:35:43;;;;;;;1.55;0.80;;;32.40;58.70;;;;;;4938892;29;20204;-71
2022/07/18 16:38:10;;;;;;;1.75;0.70;;;32.40;59.80;;;;;;4938577;29;20233;-69
2022/07/18 16:40:37;;;;;;;0.85;0.75;;;32.40;56.70;;;;;;4938476;29;20307;-68
2022/07/18 16:43:05;;;;;;;0.77;0.77;;;32.40;57.60;;;;;;4938428;29;20563;-68
2022/07/18 16:45:33;;;;;;;0.82;0.80;;;32.40;58.70;;;;;;4938356;29;20686;-68
2022/07/18 16:48:01;;;;;;;1.15;0.70;;;32.30;61.00;;;;;;4938421;29;20264;-68
2022/07/18 16:50:28;;;;;;;1.52;0.85;;;32.20;59.30;;;;;;4938600;29;20241;-71
2022/07/18 16:52:55;;;;;;;1.10;0.68;;;32.20;57.50;;;;;;4938049;29;20256;-70
2022/07/18 16:55:22;;;;;;;1.10;0.75;;;32.20;61.20;;;;;;4938341;29;20219;-72
2022/07/18 16:57:49;;;;;;;2.83;1.00;;;32.20;61.60;;;;;;4937987;29;20224;-70
2022/07/18 17:00:17;;;;;;;0.70;0.70;;;32.10;60.90;;;;;;4938041;29;20219;-68
2022/07/18 17:02:48;;;;;;;0.90;0.70;;;32.00;58.80;;;;;;4938337;29;20292;-70
2022/07/18 17:05:17;;;;;;;0.73;0.60;;;32.00;61.70;;;;;;4937903;29;20579;-70
2022/07/18 17:07:44;;;;;;;0.85;0.60;;;32.00;58.70;;;;;;4937850;29;20316;-71
2022/07/18 17:10:12;;;;;;;2.72;1.02;;;32.00;59.60;;;;;;4937992;29;20323;-77
2022/07/18 17:12:39;;;;;;;1.55;0.80;;;32.00;63.90;;;;;;4934270;29;20215;-71
2022/07/18 17:15:07;;;;;;;0.90;0.60;;;31.90;63.70;;;;;;4936428;29;20219;-71
2022/07/18 17:17:35;;;;;;;0.82;0.73;;;31.80;63.50;;;;;;4937295;29;20235;-71
2022/07/18 17:20:04;;;;;;;1.55;0.90;;;31.70;64.60;;;;;;4937807;29;20219;-72
2022/07/18 17:22:31;;;;;;;0.90;0.63;;;31.70;64.10;;;;;;4937345;29;20565;-72
2022/07/18 17:24:58;;;;;;;4.05;0.70;;;31.70;64.70;;;;;;4937718;29;20209;-70
2022/07/18 17:27:26;;;;;;;1.15;0.90;;;31.60;62.90;;;;;;4937331;29;20229;-74
2022/07/18 17:29:53;;;;;;;1.20;0.85;;;31.50;60.40;;;;;;4937114;29;20243;-68
2022/07/18 17:32:20;;;;;;;1.88;0.82;;;31.50;65.60;;;;;;4936934;29;20205;-67
2022/07/18 17:34:47;;;;;;;1.00;0.70;;;31.50;66.60;;;;;;4937252;29;20209;-69
2022/07/18 17:37:17;;;;;;;1.88;0.82;;;31.40;63.40;;;;;;4936722;29;20209;-70
2022/07/18 17:39:44;;;;;;;4.72;1.02;;;31.40;64.50;;;;;;4936747;29;20264;-69
2022/07/18 17:42:12;;;;;;;0.80;0.60;;;31.40;66.20;;;;;;4936704;29;20209;-68
2022/07/18 17:44:39;;;;;;;1.95;0.85;;;31.40;65.50;;;;;;4937204;29;20664;-69
2022/07/18 17:47:07;;;;;;;1.20;0.70;;;31.30;66.40;;;;;;4937242;29;20215;-69
2022/07/18 17:49:34;;;;;;;2.42;0.90;;;31.20;62.60;;;;;;4936885;29;20238;-69
2022/07/18 17:52:02;;;;;;;1.27;0.90;;;31.10;68.00;;;;;;4936786;29;20220;-69
2022/07/18 17:54:30;;;;;;;1.45;0.80;;;31.00;68.20;;;;;;4936729;29;20213;-69
2022/07/18 17:56:58;;;;;;;1.35;0.70;;;30.90;69.30;;;;;;4937233;29;20213;-68
2022/07/18 17:59:24;;;;;;;0.77;0.60;;;30.80;70.00;;;;;;4936723;29;20235;-69
2022/07/18 18:01:51;;;;;;;0.70;0.70;;;30.70;70.10;;;;;;4936495;29;20694;-68
2022/07/18 18:04:18;;;;;;;2.25;0.90;;;30.70;69.60;;;;;;4936747;29;20301;-70
2022/07/18 18:06:45;;;;;;;1.55;0.80;;;30.60;68.60;;;;;;4936596;29;20268;-70
2022/07/18 18:09:12;;;;;;;0.90;0.80;;;30.50;71.90;;;;;;4936332;29;20243;-68
2022/07/18 18:11:41;;;;;;;1.33;0.90;;;30.40;69.50;;;;;;4936465;29;20213;-69
2022/07/18 18:14:07;;;;;;;1.35;0.77;;;30.30;72.70;;;;;;4936076;29;20751;-68
2022/07/18 18:16:34;;;;;;;0.70;0.63;;;30.30;70.80;;;;;;4935614;29;20213;-68
2022/07/18 18:19:01;;;;;;;4.93;0.80;;;30.20;73.50;;;;;;4936577;29;20229;-68
2022/07/18 18:21:28;;;;;;;3.13;0.85;;;30.10;73.80;;;;;;4936333;29;20223;-68
2022/07/18 18:23:55;;;;;;;2.53;0.80;;;30.00;74.20;;;;;;4936180;29;20676;-70
2022/07/18 18:26:22;;;;;;;2.20;0.77;;;29.80;74.10;;;;;;4936478;29;20304;-68
2022/07/18 18:28:50;;;;;;;2.15;0.98;;;29.80;75.20;;;;;;4935531;29;20252;-68
2022/07/18 18:31:17;;;;;;;0.80;0.80;;;29.70;74.60;;;;;;4935504;29;20212;-67
2022/07/18 18:33:44;;;;;;;2.33;1.10;;;29.70;74.40;;;;;;4936252;29;20215;-69
2022/07/18 18:36:11;;;;;;;3.05;0.88;;;29.60;75.70;;;;;;4936606;29;20212;-67
2022/07/18 18:38:38;;;;;;;1.10;0.82;;;29.50;75.80;;;;;;4936286;29;20235;-68
2022/07/18 18:41:05;;;;;;;1.55;1.00;;;29.40;76.30;;;;;;4936168;29;20219;-67
2022/07/18 18:43:32;;;;;;;2.30;0.75;;;29.30;77.10;;;;;;4936128;29;20219;-69
2022/07/18 18:46:00;;;;;;;1.00;0.90;;;29.20;77.70;;;;;;4936039;29;20215;-68
2022/07/18 18:48:27;;;;;;;1.35;0.88;;;29.20;78.10;;;;;;4935703;29;20239;-67
2022/07/18 18:50:54;;;;;;;1.77;1.48;;;29.10;78.40;;;;;;4935640;29;20721;-68
2022/07/18 18:53:21;;;;;;;2.65;0.70;;;29.00;78.70;;;;;;4931893;29;20213;-66
2022/07/18 18:55:47;;;;;;;1.52;0.90;;;28.90;79.60;;;;;;4934186;29;20209;-67
2022/07/18 18:58:14;;;;;;;0.98;0.88;;;28.90;80.40;;;;;;4934909;29;20229;-69
2022/07/18 19:00:41;;;;;;;1.20;0.90;;;28.80;83.20;;;;;;4934350;29;20219;-70
2022/07/18 19:03:09;;;;;;;2.45;0.90;;;28.70;82.30;;;;;;4934019;29;20691;-67
2022/07/18 19:05:36;;;;;;;2.30;0.65;;;28.60;83.90;;;;;;4934961;29;20661;-72
2022/07/18 19:08:03;;;;;;;1.67;0.73;;;28.50;85.40;;;;;;4935692;29;20232;-68
2022/07/18 19:10:30;;;;;;;2.92;1.13;;;28.50;85.20;;;;;;4935657;29;20237;-67
2022/07/18 19:12:57;;;;;;;1.38;0.90;;;28.40;86.40;;;;;;4935737;29;20205;-68
2022/07/18 19:15:24;;;;;;;1.05;0.90;;;28.30;88.40;;;;;;4935459;29;20216;-68
2022/07/18 19:17:50;;;;;;;2.83;1.00;;;28.20;88.20;;;;;;4935336;29;20238;-68
2022/07/18 19:20:19;;;;;;;1.05;0.77;;;28.10;89.30;;;;;;4935567;29;20228;-70
2022/07/18 19:22:46;;;;;;;3.25;1.15;;;28.00;89.20;;;;;;4935424;29;20672;-68
2022/07/18 19:25:13;;;;;;;1.48;1.00;;;28.00;90.70;;;;;;4935301;29;20208;-68
2022/07/18 19:27:40;;;;;;;1.00;0.90;;;27.90;90.70;;;;;;4935354;29;20233;-67
2022/07/18 19:30:08;;;;;;;1.35;0.90;;;27.90;90.70;;;;;;4935647;29;20233;-68
2022/07/18 19:32:35;;;;;;;3.35;1.02;;;27.70;91.40;;;;;;4935289;29;20326;-68
2022/07/18 19:35:02;;;;;;;1.02;0.80;;;27.70;92.10;;;;;;4934823;29;20703;-68
2022/07/18 19:37:31;;;;;;;1.10;0.90;;;27.50;92.60;;;;;;4934871;29;20731;-69
2022/07/18 19:39:58;;;;;;;2.45;1.20;;;27.40;93.40;;;;;;4935651;29;20608;-68
2022/07/18 19:42:25;;;;;;;2.20;1.30;;;27.40;94.10;;;;;;4935363;29;20212;-68
2022/07/18 19:44:52;;;;;;;2.97;1.30;;;27.30;94.50;;;;;;4935323;29;20215;-68
2022/07/18 19:47:19;;;;;;;2.15;1.40;;;27.20;95.10;;;;;;4935706;29;20209;-68
2022/07/18 19:49:45;;;;;;;1.90;1.13;;;27.20;95.80;;;;;;4935324;29;20583;-68
2022/07/18 19:52:12;;;;;;;1.92;1.20;;;27.10;96.50;;;;;;4935361;29;20223;-69
2022/07/18 19:54:40;;;;;;;1.48;1.10;;;27.00;97.10;;;;;;4935192;29;20300;-68
2022/07/18 19:57:07;;;;;;;5.10;1.60;;;26.90;97.90;;;;;;4935319;29;20211;-68
2022/07/18 19:59:34;;;;;;;2.00;1.42;;;26.90;98.60;;;;;;4935161;29;20701;-68
2022/07/18 20:02:01;;;;;;;2.58;1.30;;;26.90;99.00;;;;;;4935613;29;20208;-69
2022/07/18 20:04:28;;;;;;;2.05;1.10;;;26.90;99.80;;;;;;4935045;29;20205;-67
2022/07/18 20:06:55;;;;;;;2.03;1.50;;;26.70;99.90;;;;;;4934858;29;20205;-68
2022/07/18 20:09:22;;;;;;;2.10;1.48;;;26.70;99.90;;;;;;4935109;29;20335;-71
2022/07/18 20:11:50;;;;;;;1.63;1.42;;;26.50;99.90;;;;;;4935187;29;20219;-71
2022/07/18 20:14:17;;;;;;;3.28;1.60;;;26.40;99.90;;;;;;4935089;29;20584;-70
2022/07/18 20:16:43;;;;;;;4.53;1.77;;;26.30;99.90;;;;;;4935489;29;20216;-71
2022/07/18 20:19:10;;;;;;;2.28;1.55;;;26.20;99.90;;;;;;4934948;29;20225;-71
2022/07/18 20:21:37;;;;;;;2.53;1.60;;;26.20;99.90;;;;;;4934796;29;20230;-69
2022/07/18 20:24:05;;;;;;;2.15;1.60;;;26.10;99.90;;;;;;4934808;29;20304;-71
2022/07/18 20:26:32;;;;;;;1.90;1.67;;;25.90;99.90;;;;;;4934470;29;20219;-71
2022/07/18 20:29:00;;;;;;;3.85;1.48;;;25.90;99.90;;;;;;4935081;29;20229;-70
2022/07/18 20:31:27;;;;;;;3.45;1.70;;;25.80;99.90;;;;;;4934815;29;20244;-69
2022/07/18 20:33:54;;;;;;;2.10;1.58;;;25.80;99.90;;;;;;4934778;29;20213;-71
2022/07/18 20:36:21;;;;;;;2.42;1.30;;;25.70;99.90;;;;;;4934543;29;20205;-71
2022/07/18 20:38:47;;;;;;;2.75;1.50;;;25.70;99.90;;;;;;4934539;29;20791;-71
2022/07/18 20:41:14;;;;;;;3.97;1.48;;;25.60;99.90;;;;;;4937038;29;20216;-70
2022/07/18 20:43:41;;;;;;;2.30;1.40;;;25.50;99.90;;;;;;4938405;29;20214;-71
2022/07/18 20:46:11;;;;;;;2.63;1.50;;;25.40;99.90;;;;;;4938248;29;20209;-70
2022/07/18 20:48:38;;;;;;;1.55;1.23;;;25.20;99.90;;;;;;4937955;29;20283;-71
2022/07/18 20:51:05;;;;;;;2.45;1.10;;;25.20;99.90;;;;;;4938397;29;20243;-69
2022/07/18 20:53:32;;;;;;;2.67;1.30;;;25.10;99.90;;;;;;4937861;29;20295;-72
2022/07/18 20:55:59;;;;;;;1.40;1.15;;;25.10;99.90;;;;;;4938020;29;20664;-71
2022/07/18 20:58:26;;;;;;;1.75;1.25;;;25.00;99.90;;;;;;4938068;29;20229;-69
2022/07/18 21:00:53;;;;;;;1.75;1.25;;;24.90;99.90;;;;;;4937854;29;20209;-68
2022/07/18 21:03:21;;;;;;;3.40;1.50;;;24.90;99.90;;;;;;4938002;29;20213;-71
2022/07/18 21:05:48;;;;;;;3.35;1.23;;;24.80;99.90;;;;;;4937889;29;20287;-71
2022/07/18 21:08:15;;;;;;;4.00;1.30;;;24.70;99.90;;;;;;4937403;29;20233;-71
2022/07/18 21:10:43;;;;;;;2.20;1.30;;;24.60;99.90;;;;;;4937674;29;20334;-71
2022/07/18 21:13:09;;;;;;;2.50;1.10;;;24.50;99.90;;;;;;4937672;29;20676;-70
2022/07/18 21:15:36;;;;;;;1.95;1.27;;;24.40;99.90;;;;;;4937503;29;20305;-71
2022/07/18 21:18:03;;;;;;;1.50;1.13;;;24.30;99.90;;;;;;4937440;29;20235;-70
2022/07/18 21:20:32;;;;;;;2.00;1.30;;;24.30;99.90;;;;;;4937207;29;20216;-69
2022/07/18 21:23:00;;;;;;;2.30;1.30;;;24.30;99.90;;;;;;4937355;29;20201;-71
2022/07/18 21:25:27;;;;;;;2.65;1.25;;;24.20;99.90;;;;;;4937739;29;20256;-71
2022/07/18 21:27:55;;;;;;;2.47;1.20;;;24.10;99.90;;;;;;4931194;29;20564;-69
2022/07/18 21:30:21;;;;;;;1.10;1.00;;;24.00;99.90;;;;;;4918230;29;20233;-68
2022/07/18 21:32:51;;;;;;;1.83;1.30;;;24.00;99.90;;;;;;4925434;29;20212;-71
2022/07/18 21:35:18;;;;;;;1.35;1.08;;;23.90;99.90;;;;;;4937149;29;20308;-69
2022/07/18 21:37:47;;;;;;;1.23;1.05;;;23.90;99.90;;;;;;4936754;29;20224;-69
2022/07/18 21:40:14;;;;;;;2.63;1.00;;;23.80;99.90;;;;;;4937603;29;20247;-69
2022/07/18 21:42:41;;;;;;;1.50;1.10;;;23.70;99.90;;;;;;4935709;29;20215;-68
2022/07/18 21:45:10;;;;;;;1.95;1.13;;;23.70;99.90;;;;;;4937692;29;20213;-71
2022/07/18 21:47:36;;;;;;;2.08;1.30;;;23.60;99.90;;;;;;4936143;29;20239;-71
2022/07/18 21:50:04;;;;;;;2.05;1.00;;;23.50;99.90;;;;;;4937063;29;20557;-69
2022/07/18 21:52:31;;;;;;;1.15;1.00;;;23.40;99.90;;;;;;4918512;29;20237;-71
2022/07/18 21:55:00;;;;;;;3.58;1.30;;;23.30;99.90;;;;;;4924494;29;20213;-69
2022/07/18 21:57:27;;;;;;;1.05;0.95;;;23.30;99.90;;;;;;4936316;29;20237;-69
2022/07/18 21:59:54;;;;;;;1.58;1.10;;;23.30;99.90;;;;;;4936363;29;20267;-69
2022/07/18 22:02:22;;;;;;;1.92;1.52;;;23.20;99.90;;;;;;4935891;29;20212;-71
